Time;durP1;ratioP1;P1;durP2;ratioP2;P2;SDS_P1;SDS_P2;PMS_P1;PMS_P2;Temp;Humidity;BMP_temperature;BMP_pressure;BME280_temperature;BME280_humidity;BME280_pressure;Samples;Min_cycle;Max_cycle;Signal;HPM_P1;HPM_P2
2022/06/21 00:00:19;;;;;;;2.28;2.05;;;16.60;49.60;;;;;;4899898;29;20714;-50
2022/06/21 00:03:02;;;;;;;1.80;1.70;;;16.50;49.60;;;;;;4895595;29;20123;-49
2022/06/21 00:05:36;;;;;;;2.90;1.95;;;16.50;50.00;;;;;;4894893;29;20051;-50
2022/06/21 00:08:15;;;;;;;5.03;2.25;;;16.40;49.70;;;;;;4896510;29;20068;-50
2022/06/21 00:10:51;;;;;;;2.30;2.10;;;16.40;50.00;;;;;;4888765;29;20069;-51
2022/06/21 00:13:33;;;;;;;5.60;2.35;;;16.40;49.70;;;;;;4895530;29;20040;-48
2022/06/21 00:16:05;;;;;;;6.78;2.78;;;16.30;50.20;;;;;;4899989;29;20536;-50
2022/06/21 00:18:34;;;;;;;5.47;2.55;;;16.50;49.60;;;;;;4896759;29;20044;-48
2022/06/21 00:21:10;;;;;;;3.78;1.95;;;16.20;49.70;;;;;;4895080;29;20151;-50
2022/06/21 00:23:36;;;;;;;2.67;2.00;;;16.20;49.90;;;;;;4876494;29;20052;-51
2022/06/21 00:26:06;;;;;;;1.70;1.60;;;16.10;49.60;;;;;;4880615;29;20121;-50
2022/06/21 00:28:33;;;;;;;2.83;1.98;;;16.10;49.70;;;;;;4895038;29;20075;-50
2022/06/21 00:31:05;;;;;;;3.55;1.98;;;16.10;49.80;;;;;;4896029;29;20072;-47
2022/06/21 00:33:34;;;;;;;2.25;1.58;;;16.00;50.10;;;;;;4898744;29;20048;-47
2022/06/21 00:36:21;;;;;;;2.67;1.75;;;15.90;49.90;;;;;;4902442;29;20055;-50
2022/06/21 00:38:58;;;;;;;1.88;1.67;;;15.90;50.80;;;;;;4892883;29;20044;-48
2022/06/21 00:41:43;;;;;;;6.38;1.90;;;15.80;50.30;;;;;;4898685;29;20076;-51
2022/06/21 00:44:35;;;;;;;9.15;1.92;;;15.80;50.70;;;;;;4898472;29;20048;-50
2022/06/21 00:47:07;;;;;;;3.33;2.58;;;15.70;50.70;;;;;;4900594;29;20059;-49
2022/06/21 00:49:41;;;;;;;2.28;1.77;;;15.70;50.40;;;;;;4898120;29;20058;-50
2022/06/21 00:52:17;;;;;;;1.55;1.45;;;15.60;50.40;;;;;;4898685;29;20044;-48
2022/06/21 00:55:01;;;;;;;2.47;1.67;;;15.60;50.80;;;;;;4900272;29;20059;-51
2022/06/21 00:57:42;;;;;;;6.55;2.35;;;15.60;51.20;;;;;;4895085;29;20044;-48
2022/06/21 01:00:52;;;;;;;3.00;1.73;;;15.50;51.00;;;;;;4898081;29;20059;-49
2022/06/21 01:03:30;;;;;;;2.60;1.83;;;15.50;51.20;;;;;;4858963;29;20073;-50
2022/06/21 01:06:03;;;;;;;2.75;2.00;;;15.50;51.40;;;;;;4902225;29;20304;-50
2022/06/21 01:08:35;;;;;;;3.92;2.15;;;15.40;50.90;;;;;;4897723;29;20045;-47
2022/06/21 01:11:10;;;;;;;3.95;2.30;;;15.40;51.10;;;;;;4897864;29;20056;-50
2022/06/21 01:13:43;;;;;;;2.40;2.20;;;15.40;51.50;;;;;;4901521;29;20044;-49
2022/06/21 01:16:14;;;;;;;3.67;2.88;;;15.30;51.70;;;;;;4898383;29;20052;-49
2022/06/21 01:18:42;;;;;;;3.97;2.28;;;15.30;51.80;;;;;;4890735;29;20445;-51
2022/06/21 01:21:11;;;;;;;2.30;2.10;;;15.30;52.10;;;;;;4898185;29;20072;-50
2022/06/21 01:24:09;;;;;;;2.67;2.47;;;15.30;51.90;;;;;;4899543;29;20040;-48
2022/06/21 01:26:42;;;;;;;3.28;2.40;;;15.30;53.10;;;;;;4897753;29;20041;-47
2022/06/21 01:29:20;;;;;;;2.67;2.33;;;15.30;51.80;;;;;;4897270;29;20072;-51
2022/06/21 01:31:54;;;;;;;3.92;2.53;;;15.30;52.50;;;;;;4902542;29;20044;-48
2022/06/21 01:34:25;;;;;;;2.38;2.15;;;15.30;51.70;;;;;;4898641;29;20100;-52
2022/06/21 01:36:59;;;;;;;2.40;2.22;;;15.30;51.80;;;;;;4897721;29;20108;-50
2022/06/21 01:39:35;;;;;;;3.00;2.42;;;15.20;51.90;;;;;;4897940;29;20048;-51
2022/06/21 01:42:26;;;;;;;3.65;2.45;;;15.20;51.90;;;;;;4899519;29;20059;-51
2022/06/21 01:44:57;;;;;;;3.10;2.58;;;15.10;52.40;;;;;;4892295;29;20103;-47
2022/06/21 01:47:38;;;;;;;2.22;2.00;;;15.10;51.40;;;;;;4897608;29;20052;-48
2022/06/21 01:50:10;;;;;;;2.38;2.15;;;15.10;51.80;;;;;;4900228;29;20040;-49
2022/06/21 01:52:43;;;;;;;2.60;1.92;;;15.00;51.20;;;;;;4900420;29;20041;-50
2022/06/21 01:55:45;;;;;;;2.50;2.30;;;15.00;51.60;;;;;;4897241;29;20563;-50
2022/06/21 01:58:26;;;;;;;2.20;2.00;;;15.00;52.10;;;;;;4878775;29;20064;-45
2022/06/21 02:01:00;;;;;;;2.17;2.00;;;14.90;51.80;;;;;;4898886;29;20512;-50
2022/06/21 02:03:31;;;;;;;2.60;2.33;;;14.90;51.50;;;;;;4888306;29;20500;-49
2022/06/21 02:06:04;;;;;;;3.45;2.20;;;14.80;51.50;;;;;;4891938;29;20076;-51
2022/06/21 02:09:05;;;;;;;2.08;1.98;;;14.80;51.80;;;;;;4898713;29;20052;-50
2022/06/21 02:11:44;;;;;;;2.53;2.33;;;14.70;51.90;;;;;;4887125;29;20049;-50
2022/06/21 02:14:30;;;;;;;2.78;2.35;;;14.70;52.00;;;;;;4897227;29;20044;-50
2022/06/21 02:17:14;;;;;;;2.47;2.28;;;14.60;52.60;;;;;;4896980;29;20056;-51
2022/06/21 02:19:59;;;;;;;3.10;2.50;;;14.60;52.40;;;;;;4901448;29;20048;-49
2022/06/21 02:22:31;;;;;;;2.55;2.35;;;14.60;52.30;;;;;;4895759;29;20044;-51
2022/06/21 02:25:01;;;;;;;4.53;2.50;;;14.60;52.30;;;;;;4896509;29;20040;-51
2022/06/21 02:27:33;;;;;;;2.67;2.17;;;14.50;52.70;;;;;;4897031;29;20053;-48
2022/06/21 02:30:09;;;;;;;6.10;2.85;;;14.50;53.40;;;;;;4901436;29;20523;-51
2022/06/21 02:32:41;;;;;;;3.08;2.70;;;14.50;53.10;;;;;;4889188;29;20044;-50
2022/06/21 02:35:25;;;;;;;3.30;2.20;;;14.60;53.10;;;;;;4896496;29;20044;-48
2022/06/21 02:37:59;;;;;;;2.88;2.42;;;14.50;53.20;;;;;;4901417;29;20044;-48
2022/06/21 02:40:38;;;;;;;2.63;2.42;;;14.50;52.70;;;;;;4895216;29;20052;-50
2022/06/21 02:43:28;;;;;;;3.67;2.28;;;14.50;53.10;;;;;;4892393;29;20496;-48
2022/06/21 02:46:15;;;;;;;3.85;2.30;;;14.50;53.20;;;;;;4900867;29;20104;-46
2022/06/21 02:49:16;;;;;;;4.10;2.50;;;14.40;53.10;;;;;;4898077;29;20486;-50
2022/06/21 02:51:50;;;;;;;2.35;2.15;;;14.40;52.80;;;;;;4896640;29;20040;-49
2022/06/21 02:54:23;;;;;;;2.28;2.08;;;14.40;52.50;;;;;;4896014;29;20052;-47
2022/06/21 02:56:59;;;;;;;2.40;2.20;;;14.30;52.30;;;;;;4896829;29;20048;-51
2022/06/21 02:59:28;;;;;;;2.90;2.45;;;14.30;52.40;;;;;;4899397;29;20525;-50
2022/06/21 03:02:00;;;;;;;2.47;1.85;;;14.20;52.40;;;;;;4896881;29;20073;-50
2022/06/21 03:04:43;;;;;;;2.65;2.40;;;14.20;52.40;;;;;;4896696;29;20048;-51
2022/06/21 03:07:16;;;;;;;;;;;14.20;52.70;;;;;;4900587;29;20119;-47
2022/06/21 03:09:44;;;;;;;2.13;1.90;;;14.20;52.20;;;;;;4896809;29;19927;-46
2022/06/21 03:12:17;;;;;;;2.92;2.33;;;14.10;51.70;;;;;;4896000;29;20092;-49
2022/06/21 03:14:48;;;;;;;2.92;2.65;;;14.10;52.20;;;;;;4896931;29;20100;-51
2022/06/21 03:17:23;;;;;;;4.05;2.40;;;14.00;52.10;;;;;;4896339;29;20040;-52
2022/06/21 03:19:51;;;;;;;2.88;2.50;;;14.00;52.40;;;;;;4896864;29;20041;-50
2022/06/21 03:22:23;;;;;;;2.72;2.47;;;13.90;53.00;;;;;;4896597;29;20044;-51
2022/06/21 03:24:53;;;;;;;2.38;2.20;;;13.90;52.80;;;;;;4898439;29;20054;-49
2022/06/21 03:27:33;;;;;;;2.80;2.55;;;13.90;53.30;;;;;;4895932;29;20048;-49
2022/06/21 03:30:00;;;;;;;3.75;2.47;;;13.80;53.30;;;;;;4896559;29;20049;-50
2022/06/21 03:32:34;;;;;;;3.40;2.70;;;13.80;53.50;;;;;;4896372;29;20064;-50
2022/06/21 03:35:05;;;;;;;3.28;2.83;;;13.80;53.90;;;;;;4901034;29;20052;-49
2022/06/21 03:37:36;;;;;;;5.45;2.80;;;13.80;53.70;;;;;;4879400;29;20119;-50
2022/06/21 03:42:55;;;;;;;2.55;2.35;;;13.80;53.70;;;;;;4932478;29;20051;-49
2022/06/21 03:45:34;;;;;;;4.05;2.42;;;13.80;54.30;;;;;;4910531;29;20044;-49
2022/06/21 03:48:33;;;;;;;4.70;2.55;;;13.80;54.70;;;;;;4915059;29;20115;-48
2022/06/21 03:51:09;;;;;;;2.30;2.10;;;13.80;54.70;;;;;;4914869;29;20044;-47
2022/06/21 03:53:47;;;;;;;3.42;2.30;;;13.80;54.10;;;;;;4909745;29;20040;-50
2022/06/21 03:56:41;;;;;;;4.60;2.25;;;13.80;53.80;;;;;;4914595;29;20048;-51
2022/06/21 03:59:25;;;;;;;3.53;2.28;;;13.80;54.60;;;;;;4915058;29;20049;-49
2022/06/21 04:02:36;;;;;;;4.30;2.65;;;13.80;54.40;;;;;;4907931;29;20044;-52
2022/06/21 04:05:09;;;;;;;2.60;2.15;;;13.80;54.50;;;;;;4910267;29;20437;-50
2022/06/21 04:07:46;;;;;;;3.83;2.25;;;13.80;54.00;;;;;;4910881;29;20067;-51
2022/06/21 04:10:47;;;;;;;5.05;2.90;;;13.80;54.30;;;;;;4914049;29;20072;-51
2022/06/21 04:13:28;;;;;;;2.70;2.28;;;13.80;55.00;;;;;;4905583;29;20052;-50
2022/06/21 04:16:35;;;;;;;4.57;2.58;;;13.80;54.20;;;;;;4918507;29;20048;-51
2022/06/21 04:19:19;;;;;;;2.50;2.30;;;13.80;54.90;;;;;;4864704;29;20402;-48
2022/06/21 04:21:54;;;;;;;2.40;2.25;;;13.80;55.00;;;;;;4897482;29;20051;-48
2022/06/21 04:25:05;;;;;;;3.25;2.67;;;13.80;55.20;;;;;;4918267;29;20048;-51
2022/06/21 04:27:47;;;;;;;2.83;2.42;;;13.80;55.80;;;;;;4886861;29;20056;-51
2022/06/21 04:30:37;;;;;;;2.58;2.13;;;13.80;55.20;;;;;;4915522;29;20052;-50
2022/06/21 04:33:03;;;;;;;3.78;2.80;;;13.90;56.40;;;;;;4914355;29;20047;-50
2022/06/21 04:35:38;;;;;;;6.13;2.70;;;13.90;55.30;;;;;;4917194;29;20080;-51
2022/06/21 04:38:13;;;;;;;3.25;2.95;;;13.90;55.70;;;;;;4917885;29;20067;-48
2022/06/21 04:40:59;;;;;;;4.57;3.13;;;14.00;56.20;;;;;;4900817;29;20044;-51
2022/06/21 04:43:51;;;;;;;3.30;3.00;;;14.00;56.60;;;;;;4918082;29;20048;-49
2022/06/21 04:46:20;;;;;;;3.60;2.75;;;14.00;57.00;;;;;;4917373;29;20048;-51
2022/06/21 04:49:08;;;;;;;4.68;2.92;;;14.10;56.60;;;;;;4911727;29;20044;-51
2022/06/21 04:52:02;;;;;;;3.80;3.10;;;14.20;57.80;;;;;;4917083;29;20072;-47
2022/06/21 04:54:32;;;;;;;3.53;3.22;;;14.20;58.20;;;;;;4917908;29;20501;-49
2022/06/21 04:57:14;;;;;;;4.43;3.38;;;14.30;57.10;;;;;;4914017;29;20452;-52
2022/06/21 04:59:48;;;;;;;3.30;2.90;;;14.30;58.10;;;;;;4910539;29;20044;-47
2022/06/21 05:02:26;;;;;;;5.22;3.88;;;14.40;57.70;;;;;;4916959;29;20143;-49
2022/06/21 05:05:04;;;;;;;5.00;3.63;;;14.50;58.00;;;;;;4912135;29;20500;-50
2022/06/21 05:07:41;;;;;;;6.22;3.42;;;14.50;58.50;;;;;;4913236;29;20107;-51
2022/06/21 05:10:14;;;;;;;4.90;3.70;;;14.60;58.50;;;;;;4913345;29;20074;-51
2022/06/21 05:12:43;;;;;;;4.38;3.97;;;14.70;59.10;;;;;;4910348;29;20507;-47
2022/06/21 05:15:20;;;;;;;5.30;4.00;;;14.80;58.70;;;;;;4914743;29;20460;-48
2022/06/21 05:18:00;;;;;;;4.75;3.22;;;14.90;59.80;;;;;;4908290;29;20036;-50
2022/06/21 05:20:31;;;;;;;4.38;3.58;;;14.90;60.10;;;;;;4919382;29;20064;-51
2022/06/21 05:23:01;;;;;;;3.83;3.30;;;15.00;59.20;;;;;;4917085;29;20044;-52
2022/06/21 05:25:30;;;;;;;5.50;2.95;;;15.10;59.30;;;;;;4910054;29;20049;-48
2022/06/21 05:28:04;;;;;;;4.13;3.53;;;15.20;59.60;;;;;;4914759;29;20047;-51
2022/06/21 05:30:43;;;;;;;4.20;3.20;;;15.30;60.50;;;;;;4918954;29;20520;-50
2022/06/21 05:33:22;;;;;;;4.35;3.20;;;15.40;60.00;;;;;;4905157;29;20044;-50
2022/06/21 05:35:50;;;;;;;5.38;3.10;;;15.50;59.90;;;;;;4911277;29;20044;-50
2022/06/21 05:38:23;;;;;;;4.82;3.88;;;15.60;59.60;;;;;;4921464;29;20091;-50
2022/06/21 05:41:29;;;;;;;8.00;3.90;;;15.70;60.20;;;;;;4915815;29;20055;-51
2022/06/21 05:44:12;;;;;;;6.40;3.95;;;15.80;60.70;;;;;;4912690;29;20201;-48
2022/06/21 05:46:45;;;;;;;6.10;4.22;;;15.90;60.80;;;;;;4912318;29;20563;-51
2022/06/21 05:49:42;;;;;;;7.25;4.70;;;16.00;60.00;;;;;;4914203;29;20048;-51
2022/06/21 05:52:20;;;;;;;7.57;4.22;;;16.10;60.40;;;;;;4906307;29;20603;-51
2022/06/21 05:55:16;;;;;;;5.18;4.03;;;16.20;59.80;;;;;;4903763;29;20127;-49
2022/06/21 05:57:49;;;;;;;5.70;3.97;;;16.40;60.00;;;;;;4913603;29;20048;-50
2022/06/21 06:00:49;;;;;;;9.43;3.92;;;16.50;59.10;;;;;;4929391;29;20055;-52
2022/06/21 06:03:40;;;;;;;6.75;4.38;;;16.60;59.90;;;;;;4929886;29;20115;-52
2022/06/21 06:06:12;;;;;;;6.95;3.90;;;16.60;58.70;;;;;;4909704;29;20070;-50
2022/06/21 06:08:41;;;;;;;;;;;16.70;58.80;;;;;;4921760;29;20499;-49
2022/06/21 06:11:15;;;;;;;5.15;4.40;;;16.90;58.40;;;;;;4925939;29;19927;-48
2022/06/21 06:13:44;;;;;;;4.75;3.70;;;16.90;58.50;;;;;;4904795;29;20087;-48
2022/06/21 06:16:24;;;;;;;5.25;3.53;;;17.00;58.30;;;;;;4914076;29;20095;-51
2022/06/21 06:19:05;;;;;;;6.05;4.03;;;17.10;58.70;;;;;;4909079;29;20055;-48
2022/06/21 06:21:45;;;;;;;5.13;3.80;;;17.20;58.70;;;;;;4914917;29;20056;-50
2022/06/21 06:24:27;;;;;;;7.82;4.00;;;17.30;58.30;;;;;;4925813;29;20047;-48
2022/06/21 06:26:58;;;;;;;6.05;4.05;;;17.40;58.10;;;;;;4909775;29;20463;-48
2022/06/21 06:29:36;;;;;;;6.35;3.63;;;17.50;57.30;;;;;;4915088;29;20169;-47
2022/06/21 06:32:21;;;;;;;4.85;3.83;;;17.60;57.60;;;;;;4913821;29;20065;-48
2022/06/21 06:34:52;;;;;;;4.55;3.25;;;17.70;57.40;;;;;;4909578;29;20044;-47
2022/06/21 06:37:30;;;;;;;;;;;17.70;57.10;;;;;;4915579;29;20827;-49
2022/06/21 06:39:58;;;;;;;3.10;2.70;;;17.90;56.60;;;;;;4915742;29;20314;-49
2022/06/21 06:42:29;;;;;;;5.32;3.10;;;17.90;56.00;;;;;;4909584;29;20512;-49
2022/06/21 06:44:59;;;;;;;3.90;3.58;;;17.90;56.10;;;;;;4914852;29;20048;-47
2022/06/21 06:47:37;;;;;;;5.78;3.30;;;18.00;56.00;;;;;;4915382;29;20115;-46
2022/06/21 06:50:20;;;;;;;4.40;2.85;;;18.10;56.10;;;;;;4910266;29;20048;-50
2022/06/21 06:53:04;;;;;;;4.30;3.25;;;18.20;56.10;;;;;;4911947;29;20047;-49
2022/06/21 06:55:44;;;;;;;5.40;2.97;;;18.30;55.70;;;;;;4914505;29;20463;-49
2022/06/21 06:58:41;;;;;;;5.07;2.90;;;18.40;55.90;;;;;;4920084;29;20395;-47
2022/06/21 07:01:28;;;;;;;4.03;3.40;;;18.50;55.30;;;;;;4910492;29;20212;-50
2022/06/21 07:04:03;;;;;;;5.10;3.30;;;18.60;54.90;;;;;;4909433;29;20103;-48
2022/06/21 07:07:08;;;;;;;5.65;3.50;;;18.70;54.70;;;;;;4915102;29;20052;-50
2022/06/21 07:09:45;;;;;;;5.57;2.67;;;18.70;54.20;;;;;;4836008;29;20050;-51
2022/06/21 07:12:17;;;;;;;3.55;3.05;;;18.90;54.10;;;;;;4898615;29;20056;-49
2022/06/21 07:14:46;;;;;;;3.42;3.00;;;18.90;54.80;;;;;;4915038;29;20099;-47
2022/06/21 07:17:18;;;;;;;6.00;2.90;;;19.00;54.00;;;;;;4905776;29;20625;-52
2022/06/21 07:19:45;;;;;;;2.97;2.35;;;19.10;53.80;;;;;;4907672;29;20098;-50
2022/06/21 07:22:36;;;;;;;3.78;2.80;;;19.20;53.30;;;;;;4907930;29;20048;-48
2022/06/21 07:25:21;;;;;;;2.70;2.22;;;19.30;53.30;;;;;;4908005;29;20067;-47
2022/06/21 07:27:53;;;;;;;5.43;2.80;;;19.40;53.00;;;;;;4909962;29;20059;-50
2022/06/21 07:30:26;;;;;;;4.35;2.70;;;19.50;52.80;;;;;;4898159;29;20079;-47
2022/06/21 07:33:02;;;;;;;3.20;2.70;;;19.50;52.40;;;;;;4903974;29;20067;-49
2022/06/21 07:35:47;;;;;;;4.35;2.50;;;19.60;51.40;;;;;;4913450;29;20566;-49
2022/06/21 07:38:24;;;;;;;3.63;2.33;;;19.70;51.90;;;;;;4909098;29;20048;-50
2022/06/21 07:40:57;;;;;;;2.70;2.50;;;19.70;51.20;;;;;;4906623;29;20044;-49
2022/06/21 07:43:46;;;;;;;4.80;2.72;;;19.80;51.20;;;;;;4912749;29;20055;-47
2022/06/21 07:46:32;;;;;;;3.97;2.85;;;19.90;50.70;;;;;;4897033;29;20044;-51
2022/06/21 07:49:33;;;;;;;3.63;2.28;;;19.90;50.50;;;;;;4911118;29;20056;-49
2022/06/21 07:52:26;;;;;;;3.10;2.67;;;19.90;50.70;;;;;;4905433;29;20070;-48
2022/06/21 07:55:00;;;;;;;2.80;2.17;;;20.00;51.40;;;;;;4902370;29;20052;-50
2022/06/21 07:57:33;;;;;;;4.85;2.75;;;20.10;51.20;;;;;;4910136;29;20037;-50
2022/06/21 08:00:07;;;;;;;2.60;2.40;;;20.20;51.40;;;;;;4914876;29;20041;-49
2022/06/21 08:08:50;;;;;;;3.35;2.47;;;20.50;50.20;;;;;;4912279;29;20059;-48
2022/06/21 08:11:26;;;;;;;3.20;2.58;;;20.60;49.70;;;;;;4913748;29;20048;-50
2022/06/21 08:13:53;;;;;;;4.57;2.75;;;20.70;49.30;;;;;;4916636;29;20411;-48
2022/06/21 08:16:31;;;;;;;3.63;2.70;;;20.80;49.60;;;;;;4908373;29;20044;-48
2022/06/21 08:19:07;;;;;;;3.85;1.70;;;20.90;49.40;;;;;;4922972;29;20420;-46
2022/06/21 08:21:44;;;;;;;3.70;2.58;;;21.00;48.30;;;;;;4917682;29;20087;-50
2022/06/21 08:24:29;;;;;;;3.38;2.20;;;21.20;48.10;;;;;;4917742;29;20048;-51
2022/06/21 08:27:05;;;;;;;2.95;2.08;;;21.20;48.10;;;;;;4911257;29;20074;-52
2022/06/21 08:29:42;;;;;;;2.38;2.17;;;21.30;47.70;;;;;;4922864;29;20115;-51
2022/06/21 08:32:41;;;;;;;3.35;1.88;;;21.40;48.00;;;;;;4912507;29;20111;-49
2022/06/21 08:35:16;;;;;;;3.47;2.53;;;21.50;47.70;;;;;;4910233;29;20043;-46
2022/06/21 08:37:51;;;;;;;2.08;1.73;;;21.60;46.70;;;;;;4912437;29;20072;-48
2022/06/21 08:40:34;;;;;;;2.97;2.17;;;21.60;46.70;;;;;;4913703;29;20100;-47
2022/06/21 08:43:28;;;;;;;6.53;2.92;;;21.70;46.20;;;;;;4905849;29;20048;-49
2022/06/21 08:46:32;;;;;;;4.88;2.15;;;21.80;46.40;;;;;;4912438;29;20099;-51
2022/06/21 08:49:20;;;;;;;3.63;1.75;;;21.80;45.90;;;;;;4911743;29;20048;-47
2022/06/21 08:52:03;;;;;;;3.15;1.80;;;21.90;46.50;;;;;;4906367;29;20036;-49
2022/06/21 08:54:51;;;;;;;2.33;2.13;;;21.90;46.10;;;;;;4911387;29;20045;-49
2022/06/21 08:57:33;;;;;;;2.42;1.90;;;22.00;46.60;;;;;;4916482;29;20048;-52
2022/06/21 09:00:24;;;;;;;2.05;1.70;;;22.00;45.70;;;;;;4896000;29;21379;-48
2022/06/21 09:03:25;;;;;;;2.83;1.70;;;22.10;45.70;;;;;;4902039;29;20111;-47
2022/06/21 09:06:32;;;;;;;2.70;1.80;;;22.30;45.80;;;;;;4915861;29;20055;-50
2022/06/21 09:08:59;;;;;;;3.08;1.50;;;22.40;45.50;;;;;;4903337;29;20123;-47
2022/06/21 09:11:53;;;;;;;2.30;1.75;;;22.50;46.20;;;;;;4913180;29;20104;-50
2022/06/21 09:15:04;;;;;;;2.35;1.80;;;22.70;45.50;;;;;;4915791;29;20103;-48
2022/06/21 09:17:37;;;;;;;2.85;2.10;;;22.80;45.10;;;;;;4905532;29;20056;-50
2022/06/21 09:20:19;;;;;;;4.70;2.08;;;22.90;45.30;;;;;;4911490;29;20045;-48
2022/06/21 09:23:41;;;;;;;13.38;2.28;;;23.00;44.80;;;;;;4914395;29;20520;-52
2022/06/21 09:26:30;;;;;;;4.57;1.77;;;23.20;44.30;;;;;;4909681;29;20059;-48
2022/06/21 09:29:39;;;;;;;3.50;1.98;;;23.20;44.00;;;;;;4912592;29;20347;-48
2022/06/21 09:32:24;;;;;;;2.30;1.70;;;23.30;43.50;;;;;;4913696;29;20040;-47
2022/06/21 09:35:01;;;;;;;3.40;1.80;;;23.40;43.50;;;;;;4915530;29;20044;-51
2022/06/21 09:37:39;;;;;;;3.80;2.03;;;23.50;43.60;;;;;;4915511;29;20044;-49
2022/06/21 09:40:06;;;;;;;3.10;2.08;;;23.60;43.00;;;;;;4911622;29;20047;-51
2022/06/21 09:43:02;;;;;;;3.03;1.90;;;23.70;43.40;;;;;;4915612;29;20055;-49
2022/06/21 09:46:01;;;;;;;2.10;1.85;;;23.70;43.50;;;;;;4917293;29;20051;-47
2022/06/21 09:48:37;;;;;;;4.13;2.05;;;23.80;42.70;;;;;;4912278;29;20792;-49
2022/06/21 09:51:24;;;;;;;2.58;2.30;;;23.90;43.30;;;;;;4899762;29;20051;-50
2022/06/21 09:54:09;;;;;;;5.20;2.17;;;24.00;42.50;;;;;;4914110;29;20095;-54
2022/06/21 09:56:59;;;;;;;3.50;1.80;;;24.00;42.50;;;;;;4908908;29;20081;-52
2022/06/21 09:59:40;;;;;;;4.72;2.30;;;24.10;42.20;;;;;;4914082;29;20075;-50
2022/06/21 10:02:21;;;;;;;2.97;1.88;;;24.20;41.90;;;;;;4914521;29;20051;-50
2022/06/21 10:05:03;;;;;;;3.25;1.67;;;24.20;42.40;;;;;;4903843;29;20059;-48
2022/06/21 10:07:52;;;;;;;1.98;1.80;;;24.30;41.70;;;;;;4911439;29;20446;-49
2022/06/21 10:10:31;;;;;;;2.45;1.60;;;24.40;41.90;;;;;;4911347;29;20329;-51
2022/06/21 10:13:07;;;;;;;7.35;3.35;;;24.40;41.70;;;;;;4912194;29;20385;-52
2022/06/21 10:16:00;;;;;;;2.00;1.63;;;24.50;41.70;;;;;;4919377;29;20111;-51
2022/06/21 10:18:36;;;;;;;3.03;2.08;;;24.60;41.40;;;;;;4908887;29;20491;-51
2022/06/21 10:21:30;;;;;;;2.95;2.17;;;24.70;40.70;;;;;;4913928;29;20048;-51
2022/06/21 10:24:05;;;;;;;2.55;2.25;;;24.70;40.50;;;;;;4911234;29;20048;-48
2022/06/21 10:26:52;;;;;;;4.30;2.42;;;24.80;40.40;;;;;;4911958;29;20575;-51
2022/06/21 10:29:31;;;;;;;1.98;1.80;;;24.80;40.00;;;;;;4903364;29;20118;-51
2022/06/21 10:32:21;;;;;;;3.22;1.67;;;24.90;40.80;;;;;;4907273;29;20040;-52
2022/06/21 10:35:24;;;;;;;3.75;1.85;;;24.90;40.30;;;;;;4911366;29;20056;-50
2022/06/21 10:38:16;;;;;;;3.20;2.30;;;25.00;40.70;;;;;;4906007;29;20449;-51
2022/06/21 10:41:01;;;;;;;2.10;1.90;;;25.10;40.60;;;;;;4906513;29;20063;-49
2022/06/21 10:44:11;;;;;;;2.03;1.83;;;25.20;40.30;;;;;;4913564;29;20052;-52
2022/06/21 10:46:52;;;;;;;6.53;2.20;;;25.30;40.30;;;;;;4902973;29;20048;-52
2022/06/21 10:49:41;;;;;;;4.10;2.03;;;25.40;39.80;;;;;;4914225;29;20099;-50
2022/06/21 10:52:18;;;;;;;3.83;2.40;;;25.40;39.90;;;;;;4915539;29;20048;-50
2022/06/21 10:54:48;;;;;;;3.20;2.30;;;25.50;39.90;;;;;;4905686;29;20099;-51
2022/06/21 10:57:42;;;;;;;3.10;2.53;;;25.60;39.60;;;;;;4912843;29;20770;-51
2022/06/21 11:03:28;;;;;;;3.50;1.67;;;25.60;38.60;;;;;;4914185;29;20067;-52
2022/06/21 11:06:10;;;;;;;2.88;2.03;;;25.60;39.40;;;;;;4911880;29;20052;-51
2022/06/21 11:09:00;;;;;;;3.22;1.92;;;25.60;39.40;;;;;;4913269;29;20051;-51
2022/06/21 11:11:39;;;;;;;2.85;1.75;;;25.60;39.20;;;;;;4909681;29;20666;-52
2022/06/21 11:14:27;;;;;;;6.13;1.75;;;25.60;39.10;;;;;;4909584;29;20613;-53
2022/06/21 11:17:07;;;;;;;2.20;1.90;;;25.60;39.40;;;;;;4912349;29;20052;-49
2022/06/21 11:19:42;;;;;;;2.85;1.67;;;25.60;38.80;;;;;;4914288;29;20051;-53
2022/06/21 11:22:09;;;;;;;3.00;2.00;;;25.70;39.50;;;;;;4909165;29;20044;-49
2022/06/21 11:24:46;;;;;;;2.80;2.30;;;25.80;39.70;;;;;;4911520;29;20076;-50
2022/06/21 11:27:16;;;;;;;2.72;2.05;;;25.80;38.50;;;;;;4911174;29;20040;-52
2022/06/21 11:30:05;;;;;;;2.55;2.13;;;26.00;39.00;;;;;;4912003;29;20103;-52
2022/06/21 11:32:54;;;;;;;3.28;1.73;;;26.10;38.30;;;;;;4911171;29;20102;-52
2022/06/21 11:35:36;;;;;;;4.03;2.80;;;26.20;38.40;;;;;;4911452;29;20040;-50
2022/06/21 11:38:15;;;;;;;3.33;2.10;;;26.40;37.50;;;;;;4913171;29;20040;-49
2022/06/21 11:41:06;;;;;;;2.97;2.00;;;26.50;38.00;;;;;;4914663;29;20044;-52
2022/06/21 11:43:50;;;;;;;2.65;2.00;;;26.60;37.80;;;;;;4911279;29;20040;-51
2022/06/21 11:46:45;;;;;;;3.63;2.05;;;26.70;37.10;;;;;;4914572;29;20064;-53
2022/06/21 11:49:31;;;;;;;2.05;1.75;;;26.80;36.90;;;;;;4910448;29;20040;-52
2022/06/21 11:52:14;;;;;;;3.05;2.03;;;26.90;36.80;;;;;;4909704;29;20411;-49
2022/06/21 11:54:58;;;;;;;2.22;2.03;;;27.00;36.10;;;;;;4911290;29;20036;-52
2022/06/21 11:57:48;;;;;;;4.43;2.00;;;27.10;36.50;;;;;;4911905;29;20059;-50
2022/06/21 12:00:30;;;;;;;2.63;1.40;;;27.10;35.80;;;;;;4909950;29;20496;-53
2022/06/21 12:02:59;;;;;;;2.85;2.13;;;27.20;36.20;;;;;;4913774;29;20739;-50
2022/06/21 12:05:56;;;;;;;2.40;2.00;;;27.20;35.40;;;;;;4912249;29;20051;-52
2022/06/21 12:09:01;;;;;;;3.53;1.88;;;27.20;35.90;;;;;;4910959;29;20040;-50
2022/06/21 12:12:01;;;;;;;2.50;2.28;;;27.20;36.00;;;;;;4911878;29;20067;-51
2022/06/21 12:14:55;;;;;;;4.78;1.88;;;27.20;35.50;;;;;;4914186;29;20045;-52
2022/06/21 12:17:54;;;;;;;3.67;2.03;;;27.30;35.20;;;;;;4912221;29;20495;-51
2022/06/21 12:20:27;;;;;;;3.15;1.55;;;27.30;34.90;;;;;;4912337;29;20096;-49
2022/06/21 12:23:01;;;;;;;4.28;2.00;;;27.30;35.00;;;;;;4912668;29;20063;-49
2022/06/21 12:25:28;;;;;;;3.72;1.60;;;27.30;34.80;;;;;;4905248;29;20497;-51
2022/06/21 12:27:59;;;;;;;4.32;2.30;;;27.40;34.80;;;;;;4911960;29;20584;-53
2022/06/21 12:30:46;;;;;;;2.38;2.17;;;27.40;34.80;;;;;;4917211;29;20123;-48
2022/06/21 12:33:19;;;;;;;3.22;1.80;;;27.50;34.90;;;;;;4917672;29;20064;-53
2022/06/21 12:36:14;;;;;;;3.00;2.17;;;27.60;34.80;;;;;;4914695;29;20475;-52
2022/06/21 12:38:50;;;;;;;1.52;1.33;;;27.70;34.10;;;;;;4915411;29;20059;-53
2022/06/21 12:41:41;;;;;;;3.38;1.67;;;27.90;34.10;;;;;;4914546;29;20154;-52
2022/06/21 12:44:26;;;;;;;4.15;1.90;;;28.10;34.60;;;;;;4917630;29;20056;-52
2022/06/21 12:47:19;;;;;;;2.65;1.70;;;28.30;34.90;;;;;;4911854;29;20580;-53
2022/06/21 12:50:24;;;;;;;3.88;1.88;;;28.50;34.10;;;;;;4915842;29;20051;-53
2022/06/21 12:53:13;;;;;;;1.63;1.33;;;28.70;33.10;;;;;;4916355;29;20044;-52
2022/06/21 12:56:19;;;;;;;4.63;2.08;;;29.00;33.20;;;;;;4898866;29;20044;-51
2022/06/21 12:59:20;;;;;;;1.50;1.15;;;29.20;32.90;;;;;;4905629;29;20123;-53
2022/06/21 13:02:01;;;;;;;2.35;1.30;;;29.40;33.60;;;;;;4920512;29;20044;-52
2022/06/21 13:05:00;;;;;;;3.15;1.70;;;29.50;32.50;;;;;;4923889;29;20068;-52
2022/06/21 13:07:58;;;;;;;3.20;1.60;;;29.60;32.30;;;;;;4918960;29;20420;-53
2022/06/21 13:11:05;;;;;;;4.30;1.60;;;29.80;31.80;;;;;;4918707;29;20039;-50
2022/06/21 13:13:34;;;;;;;2.05;1.40;;;29.80;31.30;;;;;;4864120;29;20482;-53
2022/06/21 13:16:25;;;;;;;2.00;1.50;;;29.70;31.90;;;;;;4923032;29;20525;-52
2022/06/21 13:19:12;;;;;;;3.22;1.52;;;29.60;32.30;;;;;;4911235;29;20107;-52
2022/06/21 13:22:00;;;;;;;4.82;1.50;;;29.60;32.10;;;;;;4905378;29;20131;-51
2022/06/21 13:24:32;;;;;;;3.20;1.02;;;29.50;31.80;;;;;;4911217;29;20086;-52
2022/06/21 13:27:10;;;;;;;2.60;1.40;;;29.50;31.10;;;;;;4912325;29;20052;-53
2022/06/21 13:29:37;;;;;;;1.50;1.27;;;29.50;31.10;;;;;;4916400;29;20051;-51
2022/06/21 13:32:13;;;;;;;2.78;1.65;;;29.50;31.40;;;;;;4933441;29;20040;-52
2022/06/21 13:34:48;;;;;;;1.80;1.63;;;29.40;31.20;;;;;;4923424;29;20068;-51
2022/06/21 13:37:22;;;;;;;3.63;1.67;;;29.30;30.60;;;;;;4921031;29;20420;-51
2022/06/21 13:40:01;;;;;;;2.97;2.22;;;29.20;31.50;;;;;;4915233;29;20039;-52
2022/06/21 13:42:50;;;;;;;4.03;2.30;;;29.20;31.60;;;;;;4935023;29;20047;-49
2022/06/21 13:45:36;;;;;;;2.35;1.77;;;29.10;32.20;;;;;;4912790;29;20083;-52
2022/06/21 13:48:25;;;;;;;4.10;2.20;;;28.90;32.20;;;;;;4917190;29;20032;-53
2022/06/21 13:51:12;;;;;;;3.63;1.95;;;28.70;32.50;;;;;;4913812;29;20401;-52
2022/06/21 13:53:59;;;;;;;4.90;2.63;;;28.60;33.30;;;;;;4914588;29;20040;-53
2022/06/21 13:56:30;;;;;;;2.88;2.00;;;28.50;32.90;;;;;;4914091;29;20111;-48
2022/06/21 13:59:13;;;;;;;3.80;2.17;;;28.40;33.20;;;;;;4911638;29;20047;-53
2022/06/21 14:02:03;;;;;;;;;;;28.30;33.30;;;;;;4923169;29;20299;-51
2022/06/21 14:04:51;;;;;;;2.35;1.80;;;28.30;33.80;;;;;;4902070;29;19934;-52
2022/06/21 14:07:37;;;;;;;2.28;1.70;;;28.30;33.50;;;;;;4923751;29;20047;-51
2022/06/21 14:10:21;;;;;;;4.43;2.20;;;28.30;33.50;;;;;;4912992;29;20040;-51
2022/06/21 14:12:58;;;;;;;2.50;2.05;;;28.30;34.00;;;;;;4914071;29;20193;-51